sensor_id;sensor_type;location;lat;lon;timestamp;P1;durP1;ratioP1;P2;durP2;ratioP2
74152;SDS011;62505;46.070;14.492;2023-03-01T00:01:28;7.93;;;6.25;;
74152;SDS011;62505;46.070;14.492;2023-03-01T00:03:57;8.88;;;6.50;;
74152;SDS011;62505;46.070;14.492;2023-03-01T00:06:25;8.05;;;6.10;;
74152;SDS011;62505;46.070;14.492;2023-03-01T00:08:52;10.90;;;7.05;;
74152;SDS011;62505;46.070;14.492;2023-03-01T00:11:22;7.85;;;5.85;;
74152;SDS011;62505;46.070;14.492;2023-03-01T00:13:51;9.70;;;6.88;;
74152;SDS011;62505;46.070;14.492;2023-03-01T00:16:20;8.63;;;6.55;;
74152;SDS011;62505;46.070;14.492;2023-03-01T00:18:48;9.18;;;6.30;;
74152;SDS011;62505;46.070;14.492;2023-03-01T00:21:16;7.95;;;6.47;;
74152;SDS011;62505;46.070;14.492;2023-03-01T00:23:44;8.30;;;6.40;;
74152;SDS011;62505;46.070;14.492;2023-03-01T00:26:13;8.75;;;5.97;;
74152;SDS011;62505;46.070;14.492;2023-03-01T00:28:43;9.27;;;6.85;;
74152;SDS011;62505;46.070;14.492;2023-03-01T00:31:10;7.90;;;6.32;;
74152;SDS011;62505;46.070;14.492;2023-03-01T00:33:38;9.55;;;7.05;;
74152;SDS011;62505;46.070;14.492;2023-03-01T00:36:06;9.32;;;6.32;;
74152;SDS011;62505;46.070;14.492;2023-03-01T00:38:34;7.75;;;6.38;;
74152;SDS011;62505;46.070;14.492;2023-03-01T00:41:07;8.30;;;6.32;;
74152;SDS011;62505;46.070;14.492;2023-03-01T00:43:35;7.07;;;6.07;;
74152;SDS011;62505;46.070;14.492;2023-03-01T00:46:04;8.18;;;5.88;;
74152;SDS011;62505;46.070;14.492;2023-03-01T00:48:33;7.75;;;6.07;;
74152;SDS011;62505;46.070;14.492;2023-03-01T00:51:04;7.68;;;6.10;;
74152;SDS011;62505;46.070;14.492;2023-03-01T00:53:32;9.50;;;6.63;;
74152;SDS011;62505;46.070;14.492;2023-03-01T00:56:00;9.18;;;6.38;;
74152;SDS011;62505;46.070;14.492;2023-03-01T00:58:27;10.07;;;7.05;;
74152;SDS011;62505;46.070;14.492;2023-03-01T01:00:54;7.63;;;6.18;;
74152;SDS011;62505;46.070;14.492;2023-03-01T01:03:23;7.18;;;5.95;;
74152;SDS011;62505;46.070;14.492;2023-03-01T01:05:51;8.57;;;6.20;;
74152;SDS011;62505;46.070;14.492;2023-03-01T01:08:18;8.07;;;6.35;;
74152;SDS011;62505;46.070;14.492;2023-03-01T01:10:45;9.90;;;6.32;;
74152;SDS011;62505;46.070;14.492;2023-03-01T01:13:13;8.18;;;6.75;;
74152;SDS011;62505;46.070;14.492;2023-03-01T01:15:40;9.50;;;6.47;;
74152;SDS011;62505;46.070;14.492;2023-03-01T01:18:07;9.32;;;6.60;;
74152;SDS011;62505;46.070;14.492;2023-03-01T01:20:36;6.63;;;5.35;;
74152;SDS011;62505;46.070;14.492;2023-03-01T01:23:04;9.43;;;6.53;;
74152;SDS011;62505;46.070;14.492;2023-03-01T01:25:33;8.10;;;5.95;;
74152;SDS011;62505;46.070;14.492;2023-03-01T01:28:01;8.02;;;6.20;;
74152;SDS011;62505;46.070;14.492;2023-03-01T01:30:28;7.38;;;6.05;;
74152;SDS011;62505;46.070;14.492;2023-03-01T01:32:55;8.00;;;6.00;;
74152;SDS011;62505;46.070;14.492;2023-03-01T01:35:22;9.82;;;6.22;;
74152;SDS011;62505;46.070;14.492;2023-03-01T01:37:51;7.97;;;5.57;;
74152;SDS011;62505;46.070;14.492;2023-03-01T01:40:18;8.13;;;5.80;;
74152;SDS011;62505;46.070;14.492;2023-03-01T01:42:45;7.90;;;6.07;;
74152;SDS011;62505;46.070;14.492;2023-03-01T01:45:26;7.63;;;6.20;;
74152;SDS011;62505;46.070;14.492;2023-03-01T01:47:57;8.70;;;6.60;;
74152;SDS011;62505;46.070;14.492;2023-03-01T01:50:29;8.13;;;6.47;;
74152;SDS011;62505;46.070;14.492;2023-03-01T01:53:04;9.38;;;6.05;;
74152;SDS011;62505;46.070;14.492;2023-03-01T01:55:35;7.30;;;5.90;;
74152;SDS011;62505;46.070;14.492;2023-03-01T01:58:06;7.30;;;5.53;;
74152;SDS011;62505;46.070;14.492;2023-03-01T02:00:36;8.45;;;6.53;;
74152;SDS011;62505;46.070;14.492;2023-03-01T02:03:05;7.95;;;6.05;;
74152;SDS011;62505;46.070;14.492;2023-03-01T02:05:37;7.43;;;5.70;;
74152;SDS011;62505;46.070;14.492;2023-03-01T02:08:12;6.93;;;5.15;;
74152;SDS011;62505;46.070;14.492;2023-03-01T02:10:41;6.32;;;5.50;;
74152;SDS011;62505;46.070;14.492;2023-03-01T02:13:08;8.00;;;6.03;;
74152;SDS011;62505;46.070;14.492;2023-03-01T02:15:37;8.45;;;5.75;;
74152;SDS011;62505;46.070;14.492;2023-03-01T02:18:06;7.95;;;6.18;;
74152;SDS011;62505;46.070;14.492;2023-03-01T02:20:37;7.93;;;6.07;;
74152;SDS011;62505;46.070;14.492;2023-03-01T02:23:12;10.25;;;6.05;;
74152;SDS011;62505;46.070;14.492;2023-03-01T02:25:43;7.95;;;5.75;;
74152;SDS011;62505;46.070;14.492;2023-03-01T02:28:22;7.97;;;6.15;;
74152;SDS011;62505;46.070;14.492;2023-03-01T02:30:51;7.05;;;6.10;;
74152;SDS011;62505;46.070;14.492;2023-03-01T02:33:38;8.40;;;5.97;;
74152;SDS011;62505;46.070;14.492;2023-03-01T02:36:06;7.45;;;5.90;;
74152;SDS011;62505;46.070;14.492;2023-03-01T02:38:36;6.35;;;5.32;;
74152;SDS011;62505;46.070;14.492;2023-03-01T02:41:03;7.30;;;5.57;;
74152;SDS011;62505;46.070;14.492;2023-03-01T02:43:33;7.10;;;6.15;;
74152;SDS011;62505;46.070;14.492;2023-03-01T02:46:02;10.43;;;5.82;;
74152;SDS011;62505;46.070;14.492;2023-03-01T02:48:39;7.03;;;5.43;;
74152;SDS011;62505;46.070;14.492;2023-03-01T02:51:10;7.28;;;6.10;;
74152;SDS011;62505;46.070;14.492;2023-03-01T02:53:55;7.22;;;5.80;;
74152;SDS011;62505;46.070;14.492;2023-03-01T02:56:29;6.70;;;5.80;;
74152;SDS011;62505;46.070;14.492;2023-03-01T02:58:58;7.85;;;5.63;;
74152;SDS011;62505;46.070;14.492;2023-03-01T03:01:26;8.40;;;5.70;;
74152;SDS011;62505;46.070;14.492;2023-03-01T03:04:01;7.75;;;6.00;;
74152;SDS011;62505;46.070;14.492;2023-03-01T03:06:29;8.10;;;5.63;;
74152;SDS011;62505;46.070;14.492;2023-03-01T03:08:56;6.68;;;5.57;;
74152;SDS011;62505;46.070;14.492;2023-03-01T03:11:23;7.53;;;5.97;;
74152;SDS011;62505;46.070;14.492;2023-03-01T03:13:51;8.07;;;5.90;;
74152;SDS011;62505;46.070;14.492;2023-03-01T03:16:19;7.53;;;6.03;;
74152;SDS011;62505;46.070;14.492;2023-03-01T03:18:47;7.70;;;5.70;;
74152;SDS011;62505;46.070;14.492;2023-03-01T03:21:14;7.90;;;5.80;;
74152;SDS011;62505;46.070;14.492;2023-03-01T03:23:42;6.90;;;5.68;;
74152;SDS011;62505;46.070;14.492;2023-03-01T03:26:09;7.53;;;5.90;;
74152;SDS011;62505;46.070;14.492;2023-03-01T03:28:40;7.05;;;5.43;;
74152;SDS011;62505;46.070;14.492;2023-03-01T03:31:07;7.38;;;5.30;;
74152;SDS011;62505;46.070;14.492;2023-03-01T03:33:36;6.68;;;5.43;;
74152;SDS011;62505;46.070;14.492;2023-03-01T03:36:03;7.70;;;6.00;;
74152;SDS011;62505;46.070;14.492;2023-03-01T03:38:31;7.68;;;6.07;;
74152;SDS011;62505;46.070;14.492;2023-03-01T03:41:02;8.45;;;5.57;;
74152;SDS011;62505;46.070;14.492;2023-03-01T03:43:31;7.25;;;5.28;;
74152;SDS011;62505;46.070;14.492;2023-03-01T03:46:00;6.97;;;5.75;;
74152;SDS011;62505;46.070;14.492;2023-03-01T03:48:30;6.90;;;5.93;;
74152;SDS011;62505;46.070;14.492;2023-03-01T03:51:00;7.53;;;5.75;;
74152;SDS011;62505;46.070;14.492;2023-03-01T03:53:30;6.95;;;5.55;;
74152;SDS011;62505;46.070;14.492;2023-03-01T03:55:57;7.40;;;5.70;;
74152;SDS011;62505;46.070;14.492;2023-03-01T03:58:25;7.63;;;5.60;;
74152;SDS011;62505;46.070;14.492;2023-03-01T04:00:53;6.93;;;5.22;;
74152;SDS011;62505;46.070;14.492;2023-03-01T04:03:22;7.55;;;5.47;;
74152;SDS011;62505;46.070;14.492;2023-03-01T04:05:49;7.00;;;5.15;;
74152;SDS011;62505;46.070;14.492;2023-03-01T04:08:19;9.13;;;6.18;;
74152;SDS011;62505;46.070;14.492;2023-03-01T04:10:48;5.55;;;4.95;;
74152;SDS011;62505;46.070;14.492;2023-03-01T04:13:17;7.50;;;5.18;;
74152;SDS011;62505;46.070;14.492;2023-03-01T04:15:45;9.25;;;5.85;;
74152;SDS011;62505;46.070;14.492;2023-03-01T04:18:13;6.88;;;5.68;;
74152;SDS011;62505;46.070;14.492;2023-03-01T04:20:41;7.05;;;5.57;;
74152;SDS011;62505;46.070;14.492;2023-03-01T04:23:11;7.38;;;5.85;;
74152;SDS011;62505;46.070;14.492;2023-03-01T04:25:44;5.80;;;5.18;;
74152;SDS011;62505;46.070;14.492;2023-03-01T04:28:14;6.95;;;5.65;;
74152;SDS011;62505;46.070;14.492;2023-03-01T04:30:42;6.28;;;5.68;;
74152;SDS011;62505;46.070;14.492;2023-03-01T04:33:09;7.00;;;5.90;;
74152;SDS011;62505;46.070;14.492;2023-03-01T04:35:37;8.10;;;5.80;;
74152;SDS011;62505;46.070;14.492;2023-03-01T04:38:05;7.18;;;5.63;;
74152;SDS011;62505;46.070;14.492;2023-03-01T04:40:32;7.15;;;5.18;;
74152;SDS011;62505;46.070;14.492;2023-03-01T04:43:01;7.07;;;5.57;;
74152;SDS011;62505;46.070;14.492;2023-03-01T04:45:29;6.90;;;5.57;;
74152;SDS011;62505;46.070;14.492;2023-03-01T04:47:59;7.28;;;5.72;;
74152;SDS011;62505;46.070;14.492;2023-03-01T04:50:26;6.53;;;5.60;;
74152;SDS011;62505;46.070;14.492;2023-03-01T04:52:53;6.45;;;5.30;;
74152;SDS011;62505;46.070;14.492;2023-03-01T04:55:23;6.63;;;5.47;;
74152;SDS011;62505;46.070;14.492;2023-03-01T04:57:51;5.53;;;4.95;;
74152;SDS011;62505;46.070;14.492;2023-03-01T05:00:20;6.30;;;5.40;;
74152;SDS011;62505;46.070;14.492;2023-03-01T05:02:48;7.57;;;5.57;;
74152;SDS011;62505;46.070;14.492;2023-03-01T05:05:19;5.80;;;5.18;;
74152;SDS011;62505;46.070;14.492;2023-03-01T05:07:50;7.40;;;5.80;;
74152;SDS011;62505;46.070;14.492;2023-03-01T05:10:18;7.10;;;5.63;;
74152;SDS011;62505;46.070;14.492;2023-03-01T05:12:45;7.30;;;6.00;;
74152;SDS011;62505;46.070;14.492;2023-03-01T05:15:12;6.60;;;5.65;;
74152;SDS011;62505;46.070;14.492;2023-03-01T05:17:41;5.78;;;4.75;;
74152;SDS011;62505;46.070;14.492;2023-03-01T05:20:09;7.18;;;5.90;;
74152;SDS011;62505;46.070;14.492;2023-03-01T05:22:37;5.95;;;5.28;;
74152;SDS011;62505;46.070;14.492;2023-03-01T05:25:04;6.68;;;5.30;;
74152;SDS011;62505;46.070;14.492;2023-03-01T05:27:33;7.82;;;5.55;;
74152;SDS011;62505;46.070;14.492;2023-03-01T05:30:00;6.10;;;5.00;;
74152;SDS011;62505;46.070;14.492;2023-03-01T05:32:38;6.47;;;5.30;;
74152;SDS011;62505;46.070;14.492;2023-03-01T05:35:11;8.30;;;5.70;;
74152;SDS011;62505;46.070;14.492;2023-03-01T05:37:42;7.32;;;5.50;;
74152;SDS011;62505;46.070;14.492;2023-03-01T05:40:11;8.65;;;5.72;;
74152;SDS011;62505;46.070;14.492;2023-03-01T05:42:44;11.15;;;6.45;;
74152;SDS011;62505;46.070;14.492;2023-03-01T05:45:12;9.85;;;6.82;;
74152;SDS011;62505;46.070;14.492;2023-03-01T05:47:41;8.98;;;6.65;;
74152;SDS011;62505;46.070;14.492;2023-03-01T05:50:11;12.20;;;7.38;;
74152;SDS011;62505;46.070;14.492;2023-03-01T05:52:39;13.32;;;6.78;;
74152;SDS011;62505;46.070;14.492;2023-03-01T05:55:06;11.88;;;7.47;;
74152;SDS011;62505;46.070;14.492;2023-03-01T05:57:34;13.13;;;6.50;;
74152;SDS011;62505;46.070;14.492;2023-03-01T06:00:01;10.60;;;6.78;;
74152;SDS011;62505;46.070;14.492;2023-03-01T06:02:28;11.38;;;7.30;;
74152;SDS011;62505;46.070;14.492;2023-03-01T06:04:56;11.38;;;6.60;;
74152;SDS011;62505;46.070;14.492;2023-03-01T06:07:23;13.35;;;7.68;;
74152;SDS011;62505;46.070;14.492;2023-03-01T06:09:50;10.82;;;7.32;;
74152;SDS011;62505;46.070;14.492;2023-03-01T06:12:17;13.02;;;7.00;;
74152;SDS011;62505;46.070;14.492;2023-03-01T06:14:44;13.45;;;7.53;;
74152;SDS011;62505;46.070;14.492;2023-03-01T06:17:12;13.68;;;7.65;;
74152;SDS011;62505;46.070;14.492;2023-03-01T06:19:39;13.63;;;7.43;;
74152;SDS011;62505;46.070;14.492;2023-03-01T06:22:08;13.95;;;6.78;;
74152;SDS011;62505;46.070;14.492;2023-03-01T06:24:34;13.10;;;7.60;;
74152;SDS011;62505;46.070;14.492;2023-03-01T06:27:01;10.57;;;7.13;;
74152;SDS011;62505;46.070;14.492;2023-03-01T06:29:29;11.20;;;7.50;;
74152;SDS011;62505;46.070;14.492;2023-03-01T06:31:56;10.50;;;7.07;;
74152;SDS011;62505;46.070;14.492;2023-03-01T06:34:23;11.18;;;7.60;;
74152;SDS011;62505;46.070;14.492;2023-03-01T06:36:50;11.23;;;6.78;;
74152;SDS011;62505;46.070;14.492;2023-03-01T06:39:18;11.98;;;7.40;;
74152;SDS011;62505;46.070;14.492;2023-03-01T06:41:45;10.60;;;7.22;;
74152;SDS011;62505;46.070;14.492;2023-03-01T06:44:12;16.23;;;7.82;;
74152;SDS011;62505;46.070;14.492;2023-03-01T06:46:39;9.52;;;6.65;;
74152;SDS011;62505;46.070;14.492;2023-03-01T06:49:06;9.10;;;7.00;;
74152;SDS011;62505;46.070;14.492;2023-03-01T06:51:34;11.07;;;7.43;;
74152;SDS011;62505;46.070;14.492;2023-03-01T06:54:03;12.93;;;7.60;;
74152;SDS011;62505;46.070;14.492;2023-03-01T06:56:31;13.32;;;7.15;;
74152;SDS011;62505;46.070;14.492;2023-03-01T06:58:58;9.70;;;7.18;;
74152;SDS011;62505;46.070;14.492;2023-03-01T07:01:25;11.48;;;6.60;;
74152;SDS011;62505;46.070;14.492;2023-03-01T07:03:52;12.25;;;6.63;;
74152;SDS011;62505;46.070;14.492;2023-03-01T07:06:19;12.88;;;7.38;;
74152;SDS011;62505;46.070;14.492;2023-03-01T07:08:47;11.80;;;7.50;;
74152;SDS011;62505;46.070;14.492;2023-03-01T07:11:14;11.20;;;7.38;;
74152;SDS011;62505;46.070;14.492;2023-03-01T07:13:42;11.48;;;8.02;;
74152;SDS011;62505;46.070;14.492;2023-03-01T07:16:09;11.15;;;7.43;;
74152;SDS011;62505;46.070;14.492;2023-03-01T07:18:36;9.60;;;7.25;;
74152;SDS011;62505;46.070;14.492;2023-03-01T07:21:04;11.80;;;7.38;;
74152;SDS011;62505;46.070;14.492;2023-03-01T07:23:32;12.13;;;7.55;;
74152;SDS011;62505;46.070;14.492;2023-03-01T07:25:59;9.25;;;7.03;;
74152;SDS011;62505;46.070;14.492;2023-03-01T07:28:26;12.27;;;7.20;;
74152;SDS011;62505;46.070;14.492;2023-03-01T07:30:55;12.20;;;6.90;;
74152;SDS011;62505;46.070;14.492;2023-03-01T07:33:26;11.10;;;7.30;;
74152;SDS011;62505;46.070;14.492;2023-03-01T07:35:57;13.02;;;7.80;;
74152;SDS011;62505;46.070;14.492;2023-03-01T07:38:24;13.38;;;6.90;;
74152;SDS011;62505;46.070;14.492;2023-03-01T07:40:51;10.10;;;7.32;;
74152;SDS011;62505;46.070;14.492;2023-03-01T07:43:18;10.60;;;7.18;;
74152;SDS011;62505;46.070;14.492;2023-03-01T07:45:46;8.82;;;6.68;;
74152;SDS011;62505;46.070;14.492;2023-03-01T07:48:14;16.02;;;6.75;;
74152;SDS011;62505;46.070;14.492;2023-03-01T07:50:41;12.10;;;6.95;;
74152;SDS011;62505;46.070;14.492;2023-03-01T07:53:09;11.23;;;7.43;;
74152;SDS011;62505;46.070;14.492;2023-03-01T07:55:36;9.77;;;6.40;;
74152;SDS011;62505;46.070;14.492;2023-03-01T07:58:04;10.65;;;7.03;;
74152;SDS011;62505;46.070;14.492;2023-03-01T08:00:31;11.18;;;7.10;;
74152;SDS011;62505;46.070;14.492;2023-03-01T08:02:58;9.50;;;6.72;;
74152;SDS011;62505;46.070;14.492;2023-03-01T08:05:27;12.52;;;6.82;;
74152;SDS011;62505;46.070;14.492;2023-03-01T08:07:54;11.70;;;6.60;;
74152;SDS011;62505;46.070;14.492;2023-03-01T08:10:21;10.60;;;6.93;;
74152;SDS011;62505;46.070;14.492;2023-03-01T08:12:50;10.57;;;6.65;;
74152;SDS011;62505;46.070;14.492;2023-03-01T08:15:17;9.35;;;6.25;;
74152;SDS011;62505;46.070;14.492;2023-03-01T08:17:44;14.30;;;6.88;;
74152;SDS011;62505;46.070;14.492;2023-03-01T08:20:12;8.02;;;6.22;;
74152;SDS011;62505;46.070;14.492;2023-03-01T08:22:40;9.40;;;6.90;;
74152;SDS011;62505;46.070;14.492;2023-03-01T08:25:07;9.13;;;6.60;;
74152;SDS011;62505;46.070;14.492;2023-03-01T08:27:34;11.35;;;6.97;;
74152;SDS011;62505;46.070;14.492;2023-03-01T08:30:02;9.48;;;6.68;;
74152;SDS011;62505;46.070;14.492;2023-03-01T08:32:29;10.02;;;6.25;;
74152;SDS011;62505;46.070;14.492;2023-03-01T08:35:01;9.45;;;7.03;;
74152;SDS011;62505;46.070;14.492;2023-03-01T08:37:28;8.88;;;7.18;;
74152;SDS011;62505;46.070;14.492;2023-03-01T08:39:57;10.55;;;6.88;;
74152;SDS011;62505;46.070;14.492;2023-03-01T08:42:24;10.20;;;6.95;;
74152;SDS011;62505;46.070;14.492;2023-03-01T08:44:51;10.27;;;6.63;;
74152;SDS011;62505;46.070;14.492;2023-03-01T08:47:18;10.00;;;6.35;;
74152;SDS011;62505;46.070;14.492;2023-03-01T08:49:45;10.55;;;6.88;;
74152;SDS011;62505;46.070;14.492;2023-03-01T08:52:12;10.55;;;6.68;;
74152;SDS011;62505;46.070;14.492;2023-03-01T08:54:39;12.38;;;6.78;;
74152;SDS011;62505;46.070;14.492;2023-03-01T08:57:07;10.02;;;6.05;;
74152;SDS011;62505;46.070;14.492;2023-03-01T08:59:34;10.20;;;6.60;;
74152;SDS011;62505;46.070;14.492;2023-03-01T09:02:02;9.38;;;6.63;;
74152;SDS011;62505;46.070;14.492;2023-03-01T09:04:29;9.43;;;6.03;;
74152;SDS011;62505;46.070;14.492;2023-03-01T09:06:56;12.73;;;6.85;;
74152;SDS011;62505;46.070;14.492;2023-03-01T09:09:24;10.10;;;6.60;;
74152;SDS011;62505;46.070;14.492;2023-03-01T09:11:51;8.88;;;6.90;;
74152;SDS011;62505;46.070;14.492;2023-03-01T09:14:19;7.55;;;6.22;;
74152;SDS011;62505;46.070;14.492;2023-03-01T09:16:46;8.75;;;6.57;;
74152;SDS011;62505;46.070;14.492;2023-03-01T09:19:13;10.50;;;6.30;;
74152;SDS011;62505;46.070;14.492;2023-03-01T09:21:40;8.77;;;6.20;;
74152;SDS011;62505;46.070;14.492;2023-03-01T09:24:17;8.13;;;6.22;;
74152;SDS011;62505;46.070;14.492;2023-03-01T09:26:45;9.50;;;6.70;;
74152;SDS011;62505;46.070;14.492;2023-03-01T09:29:13;8.77;;;6.68;;
74152;SDS011;62505;46.070;14.492;2023-03-01T09:31:42;9.95;;;6.47;;
74152;SDS011;62505;46.070;14.492;2023-03-01T09:34:10;7.75;;;6.30;;
74152;SDS011;62505;46.070;14.492;2023-03-01T09:36:40;9.23;;;6.10;;
74152;SDS011;62505;46.070;14.492;2023-03-01T09:39:07;8.70;;;6.53;;
74152;SDS011;62505;46.070;14.492;2023-03-01T09:41:44;10.98;;;6.35;;
74152;SDS011;62505;46.070;14.492;2023-03-01T09:44:24;9.68;;;6.30;;
74152;SDS011;62505;46.070;14.492;2023-03-01T09:46:59;11.13;;;7.07;;
74152;SDS011;62505;46.070;14.492;2023-03-01T09:49:27;12.98;;;6.80;;
74152;SDS011;62505;46.070;14.492;2023-03-01T09:51:57;9.15;;;6.72;;
74152;SDS011;62505;46.070;14.492;2023-03-01T09:54:29;7.78;;;6.32;;
74152;SDS011;62505;46.070;14.492;2023-03-01T09:57:00;8.77;;;5.90;;
74152;SDS011;62505;46.070;14.492;2023-03-01T09:59:44;8.48;;;6.47;;
74152;SDS011;62505;46.070;14.492;2023-03-01T10:02:29;8.60;;;6.43;;
74152;SDS011;62505;46.070;14.492;2023-03-01T10:05:05;8.57;;;6.35;;
74152;SDS011;62505;46.070;14.492;2023-03-01T10:07:43;10.70;;;6.80;;
74152;SDS011;62505;46.070;14.492;2023-03-01T10:10:16;9.80;;;6.63;;
74152;SDS011;62505;46.070;14.492;2023-03-01T10:12:52;11.10;;;7.35;;
74152;SDS011;62505;46.070;14.492;2023-03-01T10:15:22;8.23;;;6.53;;
74152;SDS011;62505;46.070;14.492;2023-03-01T10:18:00;9.32;;;6.30;;
74152;SDS011;62505;46.070;14.492;2023-03-01T10:20:33;9.77;;;6.20;;
74152;SDS011;62505;46.070;14.492;2023-03-01T10:23:08;8.93;;;6.60;;
74152;SDS011;62505;46.070;14.492;2023-03-01T10:25:42;8.90;;;6.40;;
74152;SDS011;62505;46.070;14.492;2023-03-01T10:28:17;8.75;;;6.13;;
74152;SDS011;62505;46.070;14.492;2023-03-01T10:30:46;8.20;;;6.07;;
74152;SDS011;62505;46.070;14.492;2023-03-01T10:33:15;9.20;;;6.20;;
74152;SDS011;62505;46.070;14.492;2023-03-01T10:35:47;8.30;;;6.43;;
74152;SDS011;62505;46.070;14.492;2023-03-01T10:38:15;11.13;;;6.78;;
74152;SDS011;62505;46.070;14.492;2023-03-01T10:40:53;14.43;;;6.70;;
74152;SDS011;62505;46.070;14.492;2023-03-01T10:43:22;7.80;;;6.00;;
74152;SDS011;62505;46.070;14.492;2023-03-01T10:45:50;8.27;;;6.10;;
74152;SDS011;62505;46.070;14.492;2023-03-01T10:48:20;7.85;;;6.05;;
74152;SDS011;62505;46.070;14.492;2023-03-01T10:51:04;9.65;;;6.70;;
74152;SDS011;62505;46.070;14.492;2023-03-01T10:53:34;9.05;;;6.82;;
74152;SDS011;62505;46.070;14.492;2023-03-01T10:56:04;9.73;;;6.07;;
74152;SDS011;62505;46.070;14.492;2023-03-01T10:58:33;9.48;;;6.32;;
74152;SDS011;62505;46.070;14.492;2023-03-01T11:01:02;9.65;;;6.53;;
74152;SDS011;62505;46.070;14.492;2023-03-01T11:03:33;7.65;;;6.45;;
74152;SDS011;62505;46.070;14.492;2023-03-01T11:06:02;8.55;;;6.68;;
74152;SDS011;62505;46.070;14.492;2023-03-01T11:08:32;8.20;;;6.38;;
74152;SDS011;62505;46.070;14.492;2023-03-01T11:11:04;11.40;;;6.80;;
74152;SDS011;62505;46.070;14.492;2023-03-01T11:13:49;8.52;;;6.90;;
74152;SDS011;62505;46.070;14.492;2023-03-01T11:16:25;9.57;;;7.03;;
74152;SDS011;62505;46.070;14.492;2023-03-01T11:18:58;9.15;;;6.97;;
74152;SDS011;62505;46.070;14.492;2023-03-01T11:21:47;12.30;;;7.53;;
74152;SDS011;62505;46.070;14.492;2023-03-01T11:24:30;8.65;;;6.60;;
74152;SDS011;62505;46.070;14.492;2023-03-01T11:27:02;14.23;;;8.32;;
74152;SDS011;62505;46.070;14.492;2023-03-01T11:29:35;10.07;;;6.93;;
74152;SDS011;62505;46.070;14.492;2023-03-01T11:32:04;11.57;;;7.75;;
74152;SDS011;62505;46.070;14.492;2023-03-01T11:34:38;11.10;;;7.15;;
74152;SDS011;62505;46.070;14.492;2023-03-01T11:37:10;10.30;;;7.05;;
74152;SDS011;62505;46.070;14.492;2023-03-01T11:39:50;11.63;;;7.95;;
74152;SDS011;62505;46.070;14.492;2023-03-01T11:42:25;9.82;;;7.88;;
74152;SDS011;62505;46.070;14.492;2023-03-01T11:45:02;9.55;;;7.30;;
74152;SDS011;62505;46.070;14.492;2023-03-01T11:47:40;10.05;;;7.45;;
74152;SDS011;62505;46.070;14.492;2023-03-01T11:50:26;11.85;;;7.55;;
74152;SDS011;62505;46.070;14.492;2023-03-01T11:53:01;11.10;;;7.65;;
74152;SDS011;62505;46.070;14.492;2023-03-01T11:55:48;10.23;;;7.20;;
74152;SDS011;62505;46.070;14.492;2023-03-01T11:58:27;11.88;;;8.25;;
74152;SDS011;62505;46.070;14.492;2023-03-01T12:04:15;12.00;;;7.13;;
74152;SDS011;62505;46.070;14.492;2023-03-01T12:07:01;12.27;;;7.60;;
74152;SDS011;62505;46.070;14.492;2023-03-01T12:12:44;9.23;;;7.45;;
74152;SDS011;62505;46.070;14.492;2023-03-01T12:18:21;9.20;;;7.40;;
74152;SDS011;62505;46.070;14.492;2023-03-01T12:21:03;9.20;;;6.88;;
74152;SDS011;62505;46.070;14.492;2023-03-01T12:26:43;12.63;;;8.45;;
74152;SDS011;62505;46.070;14.492;2023-03-01T12:29:26;10.05;;;7.25;;
74152;SDS011;62505;46.070;14.492;2023-03-01T12:37:54;10.23;;;7.50;;
74152;SDS011;62505;46.070;14.492;2023-03-01T12:40:33;9.05;;;6.78;;
74152;SDS011;62505;46.070;14.492;2023-03-01T12:43:11;11.43;;;7.30;;
74152;SDS011;62505;46.070;14.492;2023-03-01T12:45:51;9.43;;;7.38;;
74152;SDS011;62505;46.070;14.492;2023-03-01T12:48:31;10.32;;;7.28;;
74152;SDS011;62505;46.070;14.492;2023-03-01T12:51:10;9.00;;;6.57;;
74152;SDS011;62505;46.070;14.492;2023-03-01T12:53:41;11.05;;;7.22;;
74152;SDS011;62505;46.070;14.492;2023-03-01T12:56:13;10.63;;;7.38;;
74152;SDS011;62505;46.070;14.492;2023-03-01T12:58:46;10.50;;;7.88;;
74152;SDS011;62505;46.070;14.492;2023-03-01T13:01:21;11.63;;;7.40;;
74152;SDS011;62505;46.070;14.492;2023-03-01T13:04:01;11.32;;;8.05;;
74152;SDS011;62505;46.070;14.492;2023-03-01T13:06:55;14.70;;;8.70;;
74152;SDS011;62505;46.070;14.492;2023-03-01T13:09:30;12.43;;;8.10;;
74152;SDS011;62505;46.070;14.492;2023-03-01T13:12:14;10.25;;;7.95;;
74152;SDS011;62505;46.070;14.492;2023-03-01T13:15:24;9.88;;;7.43;;
74152;SDS011;62505;46.070;14.492;2023-03-01T13:17:53;14.63;;;7.85;;
74152;SDS011;62505;46.070;14.492;2023-03-01T13:20:23;10.70;;;7.50;;
74152;SDS011;62505;46.070;14.492;2023-03-01T13:23:01;11.00;;;7.60;;
74152;SDS011;62505;46.070;14.492;2023-03-01T13:25:30;11.93;;;8.68;;
74152;SDS011;62505;46.070;14.492;2023-03-01T13:31:11;12.52;;;7.85;;
74152;SDS011;62505;46.070;14.492;2023-03-01T13:37:34;10.73;;;8.00;;
74152;SDS011;62505;46.070;14.492;2023-03-01T13:40:04;11.98;;;7.85;;
74152;SDS011;62505;46.070;14.492;2023-03-01T13:42:58;10.80;;;7.55;;
74152;SDS011;62505;46.070;14.492;2023-03-01T13:45:57;13.43;;;7.63;;
74152;SDS011;62505;46.070;14.492;2023-03-01T13:48:26;12.93;;;7.80;;
74152;SDS011;62505;46.070;14.492;2023-03-01T13:50:55;10.68;;;7.72;;
74152;SDS011;62505;46.070;14.492;2023-03-01T13:53:26;10.23;;;7.68;;
74152;SDS011;62505;46.070;14.492;2023-03-01T13:55:58;9.60;;;8.02;;
74152;SDS011;62505;46.070;14.492;2023-03-01T13:58:30;11.43;;;7.38;;
74152;SDS011;62505;46.070;14.492;2023-03-01T14:01:01;11.65;;;7.82;;
74152;SDS011;62505;46.070;14.492;2023-03-01T14:03:31;10.88;;;6.85;;
74152;SDS011;62505;46.070;14.492;2023-03-01T14:06:01;13.00;;;8.15;;
74152;SDS011;62505;46.070;14.492;2023-03-01T14:08:33;12.93;;;7.78;;
74152;SDS011;62505;46.070;14.492;2023-03-01T14:14:06;12.35;;;9.30;;
74152;SDS011;62505;46.070;14.492;2023-03-01T14:16:54;11.55;;;8.68;;
74152;SDS011;62505;46.070;14.492;2023-03-01T14:19:31;12.65;;;8.80;;
74152;SDS011;62505;46.070;14.492;2023-03-01T14:22:00;14.57;;;9.27;;
74152;SDS011;62505;46.070;14.492;2023-03-01T14:24:32;12.45;;;9.35;;
74152;SDS011;62505;46.070;14.492;2023-03-01T14:27:01;14.90;;;8.82;;
74152;SDS011;62505;46.070;14.492;2023-03-01T14:29:34;12.93;;;9.23;;
74152;SDS011;62505;46.070;14.492;2023-03-01T14:32:10;11.55;;;8.88;;
74152;SDS011;62505;46.070;14.492;2023-03-01T14:34:42;13.55;;;9.32;;
74152;SDS011;62505;46.070;14.492;2023-03-01T14:37:11;13.05;;;8.55;;
74152;SDS011;62505;46.070;14.492;2023-03-01T14:39:45;12.45;;;8.88;;
74152;SDS011;62505;46.070;14.492;2023-03-01T14:42:13;11.27;;;8.65;;
74152;SDS011;62505;46.070;14.492;2023-03-01T14:44:43;12.65;;;9.23;;
74152;SDS011;62505;46.070;14.492;2023-03-01T14:47:13;12.15;;;9.20;;
74152;SDS011;62505;46.070;14.492;2023-03-01T14:49:47;12.07;;;8.82;;
74152;SDS011;62505;46.070;14.492;2023-03-01T14:52:20;11.15;;;8.45;;
74152;SDS011;62505;46.070;14.492;2023-03-01T14:54:51;13.20;;;8.50;;
74152;SDS011;62505;46.070;14.492;2023-03-01T14:57:21;13.50;;;8.85;;
74152;SDS011;62505;46.070;14.492;2023-03-01T14:59:52;12.90;;;9.50;;
74152;SDS011;62505;46.070;14.492;2023-03-01T15:02:22;11.95;;;8.27;;
74152;SDS011;62505;46.070;14.492;2023-03-01T15:04:52;12.40;;;9.25;;
74152;SDS011;62505;46.070;14.492;2023-03-01T15:07:22;11.00;;;7.75;;
74152;SDS011;62505;46.070;14.492;2023-03-01T15:09:52;11.90;;;8.50;;
74152;SDS011;62505;46.070;14.492;2023-03-01T15:12:36;11.85;;;8.05;;
74152;SDS011;62505;46.070;14.492;2023-03-01T15:15:26;13.32;;;8.48;;
74152;SDS011;62505;46.070;14.492;2023-03-01T15:18:06;13.18;;;8.40;;